Time;durP1;ratioP1;P1;durP2;ratioP2;P2;SDS_P1;SDS_P2;PMS_P1;PMS_P2;Temp;Humidity;BMP_temperature;BMP_pressure;BME280_temperature;BME280_humidity;BME280_pressure;Samples;Min_cycle;Max_cycle;Signal;HPM_P1;HPM_P2
2023/03/20 00:01:21;;;;;;;6.45;4.65;;;8.10;99.90;;;;;;5043986;28;20528;-36
2023/03/20 00:03:49;;;;;;;4.65;3.25;;;8.10;99.90;;;;;;5045587;28;20056;-37
2023/03/20 00:06:22;;;;;;;4.65;4.25;;;8.10;99.90;;;;;;5041709;28;20041;-37
2023/03/20 00:08:52;;;;;;;5.47;4.22;;;8.10;99.90;;;;;;5043952;28;20052;-37
2023/03/20 00:11:25;;;;;;;7.00;4.80;;;8.20;99.90;;;;;;5042479;28;20060;-36
2023/03/20 00:14:00;;;;;;;4.47;4.07;;;8.10;99.90;;;;;;5044216;28;20051;-36
2023/03/20 00:16:36;;;;;;;5.03;3.47;;;8.10;99.90;;;;;;5041770;28;20690;-37
2023/03/20 00:19:05;;;;;;;4.97;4.13;;;8.10;99.90;;;;;;5042289;28;20052;-37
2023/03/20 00:21:33;;;;;;;6.03;4.15;;;8.10;99.90;;;;;;5042492;28;20061;-37
2023/03/20 00:24:00;;;;;;;4.70;3.45;;;8.10;99.90;;;;;;5043725;28;20061;-37
2023/03/20 00:26:34;;;;;;;7.93;4.28;;;8.10;99.90;;;;;;5040679;28;20045;-36
2023/03/20 00:29:03;;;;;;;7.07;4.35;;;8.10;99.90;;;;;;5039795;28;20068;-37
2023/03/20 00:31:36;;;;;;;4.72;3.38;;;8.10;99.90;;;;;;5042940;28;20056;-36
2023/03/20 00:34:10;;;;;;;3.53;3.15;;;8.10;99.90;;;;;;5041854;28;20056;-37
2023/03/20 00:36:38;;;;;;;4.05;3.75;;;8.00;99.90;;;;;;5041940;28;20052;-36
2023/03/20 00:39:06;;;;;;;3.55;2.88;;;8.00;99.90;;;;;;5043831;28;20049;-37
2023/03/20 00:41:46;;;;;;;5.95;3.53;;;8.00;99.90;;;;;;5041492;28;20068;-37
2023/03/20 00:44:33;;;;;;;3.75;2.90;;;8.00;99.90;;;;;;5037897;28;20059;-36
2023/03/20 00:47:05;;;;;;;3.78;3.47;;;8.00;99.90;;;;;;5037848;28;20060;-36
2023/03/20 00:49:35;;;;;;;3.83;3.53;;;8.00;99.90;;;;;;5042207;28;20360;-37
2023/03/20 00:52:04;;;;;;;3.00;2.75;;;7.90;99.90;;;;;;5043533;28;20056;-37
2023/03/20 00:54:31;;;;;;;3.67;3.38;;;8.00;99.90;;;;;;5043205;28;20060;-37
2023/03/20 00:57:12;;;;;;;4.28;3.95;;;7.90;99.90;;;;;;5037929;28;20060;-36
2023/03/20 00:59:58;;;;;;;3.80;3.17;;;7.90;99.90;;;;;;5041913;28;20758;-36
2023/03/20 01:02:27;;;;;;;2.42;2.33;;;7.90;99.90;;;;;;5041351;28;20049;-37
2023/03/20 01:05:04;;;;;;;3.00;2.80;;;7.90;99.90;;;;;;5041473;28;20056;-37
2023/03/20 01:07:32;;;;;;;2.75;2.55;;;7.90;99.90;;;;;;5041076;28;20592;-37
2023/03/20 01:10:03;;;;;;;2.75;2.55;;;7.90;99.90;;;;;;5046843;28;20041;-37
2023/03/20 01:12:31;;;;;;;3.25;2.97;;;7.90;99.90;;;;;;5045327;28;20053;-37
2023/03/20 01:14:59;;;;;;;2.63;2.50;;;7.90;99.90;;;;;;5046129;28;20044;-37
2023/03/20 01:17:28;;;;;;;3.83;3.53;;;7.90;99.90;;;;;;5044416;28;20045;-37
2023/03/20 01:19:56;;;;;;;2.80;2.58;;;7.90;99.90;;;;;;5045285;28;20048;-36
2023/03/20 01:22:24;;;;;;;3.15;2.90;;;7.80;99.90;;;;;;5045038;28;20309;-37
2023/03/20 01:24:51;;;;;;;3.15;2.85;;;7.90;99.90;;;;;;5049221;28;20063;-36
2023/03/20 01:27:20;;;;;;;3.10;2.90;;;7.90;99.90;;;;;;5043557;28;20068;-37
2023/03/20 01:29:47;;;;;;;2.78;2.42;;;7.80;99.90;;;;;;5043089;28;20199;-36
2023/03/20 01:32:18;;;;;;;2.85;2.65;;;7.80;99.90;;;;;;5046116;28;20537;-38
2023/03/20 01:34:48;;;;;;;3.63;3.00;;;7.80;99.90;;;;;;5046397;28;20045;-37
2023/03/20 01:37:26;;;;;;;3.15;2.95;;;7.80;99.90;;;;;;5043466;28;20060;-37
2023/03/20 01:39:58;;;;;;;2.70;2.47;;;7.80;99.90;;;;;;5043844;28;20820;-37
2023/03/20 01:42:26;;;;;;;5.35;3.45;;;7.80;99.90;;;;;;5044983;28;20413;-36
2023/03/20 01:44:54;;;;;;;3.95;2.92;;;7.80;99.90;;;;;;5044047;28;20049;-37
2023/03/20 01:47:23;;;;;;;3.13;2.80;;;7.80;99.90;;;;;;5042953;28;20051;-36
2023/03/20 01:50:25;;;;;;;2.75;2.55;;;7.80;99.90;;;;;;5044102;28;20544;-37
2023/03/20 01:53:09;;;;;;;3.92;3.05;;;7.80;99.90;;;;;;5045533;28;20060;-37
2023/03/20 01:55:44;;;;;;;6.73;3.70;;;7.80;99.90;;;;;;5043588;28;20056;-35
2023/03/20 01:58:36;;;;;;;7.37;3.43;;;7.90;99.90;;;;;;5046359;28;20287;-35
2023/03/20 02:01:10;;;;;;;3.53;3.00;;;7.90;99.90;;;;;;5041036;28;20306;-35
2023/03/20 02:03:41;;;;;;;2.72;2.53;;;7.90;99.90;;;;;;5043715;28;20068;-36
2023/03/20 02:06:36;;;;;;;3.10;2.80;;;7.90;99.90;;;;;;5042506;28;20480;-35
2023/03/20 02:09:13;;;;;;;1.95;1.77;;;7.80;99.90;;;;;;5042870;28;20512;-34
2023/03/20 02:11:45;;;;;;;2.50;2.30;;;7.90;99.90;;;;;;5024826;28;20049;-35
2023/03/20 02:14:13;;;;;;;3.35;3.00;;;7.90;99.90;;;;;;5044711;28;20607;-35
2023/03/20 02:17:09;;;;;;;2.40;2.20;;;7.90;99.90;;;;;;5045072;28;20544;-48
2023/03/20 02:20:09;;;;;;;3.73;3.33;;;7.90;99.90;;;;;;5041469;28;20437;-47
2023/03/20 02:23:02;;;;;;;3.28;3.08;;;7.80;99.90;;;;;;5039518;28;20831;-47
2023/03/20 02:26:07;;;;;;;4.03;3.72;;;7.80;99.90;;;;;;5038968;28;20049;-47
2023/03/20 02:29:17;;;;;;;5.65;1.85;;;7.80;99.90;;;;;;5038761;28;20045;-47
2023/03/20 02:32:17;;;;;;;2.08;1.95;;;7.70;99.90;;;;;;5044813;28;20055;-46
2023/03/20 02:35:03;;;;;;;2.42;2.30;;;7.70;99.90;;;;;;5042410;28;20049;-47
2023/03/20 02:37:52;;;;;;;2.10;1.95;;;7.70;99.90;;;;;;5042976;28;20056;-47
2023/03/20 02:40:58;;;;;;;8.20;2.63;;;7.70;99.90;;;;;;5041342;28;20057;-47
2023/03/20 02:43:43;;;;;;;2.95;2.50;;;7.70;99.90;;;;;;5045010;28;20049;-47
2023/03/20 02:46:23;;;;;;;2.42;2.22;;;7.70;99.90;;;;;;5039075;28;20394;-47
2023/03/20 02:49:02;;;;;;;2.60;2.40;;;7.70;99.90;;;;;;5042288;28;20056;-46
2023/03/20 02:51:47;;;;;;;2.60;2.40;;;7.70;99.90;;;;;;5045938;28;20060;-48
2023/03/20 02:54:21;;;;;;;2.63;1.73;;;7.70;99.90;;;;;;5039711;28;20040;-47
2023/03/20 02:57:24;;;;;;;2.33;2.22;;;7.70;99.90;;;;;;5045268;28;20084;-47
2023/03/20 02:59:58;;;;;;;2.22;2.00;;;7.70;99.90;;;;;;5024757;28;20053;-47
2023/03/20 03:03:00;;;;;;;1.65;1.55;;;7.70;99.90;;;;;;5043449;28;20071;-47
2023/03/20 03:05:50;;;;;;;1.98;1.88;;;7.70;99.90;;;;;;5040678;28;20308;-46
2023/03/20 03:08:22;;;;;;;1.85;1.75;;;7.70;99.90;;;;;;5044030;28;20068;-47
2023/03/20 03:11:00;;;;;;;3.30;1.67;;;7.70;99.90;;;;;;5046508;28;20247;-48
2023/03/20 03:13:31;;;;;;;4.35;2.63;;;7.70;99.90;;;;;;5041894;28;20052;-47
2023/03/20 03:16:39;;;;;;;1.55;1.40;;;7.70;99.90;;;;;;5041344;28;20517;-47
2023/03/20 03:19:14;;;;;;;2.28;2.17;;;7.70;99.90;;;;;;5002364;28;20497;-47
2023/03/20 03:21:41;;;;;;;1.65;1.55;;;7.70;99.90;;;;;;5038287;28;20072;-47
2023/03/20 03:24:35;;;;;;;2.10;1.65;;;7.70;99.90;;;;;;5043698;28;20532;-46
2023/03/20 03:27:24;;;;;;;3.42;1.77;;;7.70;99.90;;;;;;5036473;28;20049;-48
2023/03/20 03:29:58;;;;;;;2.53;2.33;;;7.70;99.90;;;;;;5035835;28;20501;-47
2023/03/20 03:32:34;;;;;;;1.65;1.50;;;7.70;99.90;;;;;;5042270;28;20056;-47
2023/03/20 03:35:05;;;;;;;2.25;2.00;;;7.70;99.90;;;;;;5043285;28;20604;-47
2023/03/20 03:37:56;;;;;;;1.73;1.63;;;7.70;99.90;;;;;;5039541;28;20520;-47
2023/03/20 03:40:40;;;;;;;2.58;2.38;;;7.70;99.90;;;;;;5045016;28;20342;-47
2023/03/20 03:43:29;;;;;;;1.92;1.83;;;7.70;99.90;;;;;;5042812;28;20055;-47
2023/03/20 03:46:04;;;;;;;1.73;1.63;;;7.70;99.90;;;;;;5043162;28;20041;-47
2023/03/20 03:48:39;;;;;;;1.95;1.85;;;7.70;99.90;;;;;;5043522;28;20064;-48
2023/03/20 03:51:12;;;;;;;2.95;2.75;;;7.60;99.90;;;;;;5037780;28;20056;-47
2023/03/20 03:53:58;;;;;;;2.60;2.40;;;7.70;99.90;;;;;;5042792;28;20056;-47
2023/03/20 03:56:30;;;;;;;1.63;1.52;;;7.70;99.90;;;;;;5041604;28;20049;-46
2023/03/20 03:59:03;;;;;;;2.22;2.05;;;7.60;99.90;;;;;;5038198;28;20506;-47
2023/03/20 04:01:34;;;;;;;2.45;2.25;;;7.60;99.90;;;;;;5043916;28;20509;-47
2023/03/20 04:04:06;;;;;;;3.07;2.57;;;7.70;99.90;;;;;;5042464;28;20064;-47
2023/03/20 04:06:34;;;;;;;2.55;2.35;;;7.60;99.90;;;;;;5042419;28;20295;-47
2023/03/20 04:09:01;;;;;;;1.65;1.55;;;7.70;99.90;;;;;;5045213;28;20057;-47
2023/03/20 04:11:29;;;;;;;2.25;2.05;;;7.70;99.90;;;;;;5030191;28;20048;-47
2023/03/20 04:13:56;;;;;;;2.17;2.08;;;7.70;99.90;;;;;;5043466;28;20512;-47
2023/03/20 04:16:25;;;;;;;1.60;1.50;;;7.60;99.90;;;;;;5041702;28;20056;-47
2023/03/20 04:18:54;;;;;;;4.32;1.60;;;7.60;99.90;;;;;;5042407;28;20540;-47
2023/03/20 04:21:22;;;;;;;1.75;1.65;;;7.60;99.90;;;;;;5040297;28;20529;-47
2023/03/20 04:23:51;;;;;;;2.78;2.13;;;7.60;99.90;;;;;;5042119;28;20344;-47
2023/03/20 04:26:21;;;;;;;1.75;1.58;;;7.50;99.90;;;;;;5041141;28;20048;-47
2023/03/20 04:28:50;;;;;;;1.63;1.52;;;7.50;99.90;;;;;;5040508;28;20372;-48
2023/03/20 04:31:36;;;;;;;2.30;2.20;;;7.60;99.90;;;;;;5042188;28;20087;-47
2023/03/20 04:34:13;;;;;;;2.10;2.00;;;7.60;99.90;;;;;;5041446;28;20414;-46
2023/03/20 04:36:56;;;;;;;1.98;1.88;;;7.50;99.90;;;;;;5040849;28;20053;-47
2023/03/20 04:39:34;;;;;;;2.75;2.58;;;7.50;99.90;;;;;;5041293;28;20045;-47
2023/03/20 04:42:03;;;;;;;2.03;1.92;;;7.40;99.90;;;;;;5040718;28;20057;-46
2023/03/20 04:44:31;;;;;;;1.88;1.77;;;7.50;99.90;;;;;;5040231;28;20052;-47
2023/03/20 04:46:59;;;;;;;2.13;2.03;;;7.50;99.90;;;;;;5043238;28;20604;-47
2023/03/20 04:49:27;;;;;;;4.43;1.98;;;7.50;99.90;;;;;;5041288;28;20607;-46
2023/03/20 04:51:55;;;;;;;2.40;1.90;;;7.40;99.90;;;;;;5041825;28;20131;-47
2023/03/20 04:54:35;;;;;;;2.30;2.10;;;7.40;99.90;;;;;;5041400;28;20529;-47
2023/03/20 04:57:03;;;;;;;2.08;1.98;;;7.40;99.90;;;;;;5042390;28;20196;-48
2023/03/20 04:59:30;;;;;;;2.58;2.38;;;7.40;99.90;;;;;;5038651;28;20040;-47
2023/03/20 05:01:58;;;;;;;2.03;1.83;;;7.40;99.90;;;;;;5043160;28;20053;-46
2023/03/20 05:04:26;;;;;;;2.17;2.05;;;7.40;99.90;;;;;;5040846;28;20536;-47
2023/03/20 05:06:54;;;;;;;1.88;1.77;;;7.40;99.90;;;;;;5043189;28;20057;-47
2023/03/20 05:09:26;;;;;;;;;;;7.30;99.90;;;;;;5040046;28;20060;-47
2023/03/20 05:11:54;;;;;;;5.43;2.72;;;7.30;99.90;;;;;;5042102;28;19944;-47
2023/03/20 05:14:40;;;;;;;3.40;1.80;;;7.30;99.90;;;;;;5035342;28;20049;-47
2023/03/20 05:17:47;;;;;;;5.00;2.13;;;7.30;99.90;;;;;;4997614;28;20466;-47
2023/03/20 05:20:28;;;;;;;2.63;2.42;;;7.30;99.90;;;;;;4981711;28;20518;-47
2023/03/20 05:23:35;;;;;;;2.42;2.22;;;7.30;99.90;;;;;;4961180;28;20066;-47
2023/03/20 05:26:18;;;;;;;2.10;1.95;;;7.30;99.90;;;;;;4964232;28;20062;-47
2023/03/20 05:29:21;;;;;;;6.18;3.40;;;7.30;99.90;;;;;;4992433;28;20057;-47
2023/03/20 05:32:18;;;;;;;4.50;2.50;;;7.30;99.90;;;;;;5042300;28;20059;-47
2023/03/20 05:34:56;;;;;;;1.85;1.58;;;7.30;99.90;;;;;;5040912;28;20049;-47
2023/03/20 05:37:45;;;;;;;2.80;2.55;;;7.30;99.90;;;;;;5040344;28;20309;-47
2023/03/20 05:40:24;;;;;;;1.60;1.50;;;7.30;99.90;;;;;;5043157;28;20421;-47
2023/03/20 05:43:20;;;;;;;3.10;1.80;;;7.30;99.90;;;;;;4998938;28;20546;-46
2023/03/20 05:46:17;;;;;;;2.00;1.80;;;7.30;99.90;;;;;;5034218;28;20049;-47
2023/03/20 05:49:20;;;;;;;2.33;2.15;;;7.30;99.90;;;;;;4960916;28;20543;-47
2023/03/20 05:52:06;;;;;;;2.83;2.55;;;7.30;99.90;;;;;;5034149;28;20049;-46
2023/03/20 05:55:01;;;;;;;3.95;2.33;;;7.40;99.90;;;;;;5042642;28;20045;-46
2023/03/20 05:57:47;;;;;;;1.92;1.83;;;7.40;99.90;;;;;;5041084;28;20049;-47
2023/03/20 06:00:27;;;;;;;3.80;2.70;;;7.30;99.90;;;;;;5041875;28;20060;-46
2023/03/20 06:03:13;;;;;;;2.85;2.28;;;7.30;99.90;;;;;;5040673;28;20052;-46
2023/03/20 06:05:55;;;;;;;2.33;2.13;;;7.40;99.90;;;;;;5042112;28;20468;-46
2023/03/20 06:08:23;;;;;;;2.03;1.92;;;7.30;99.90;;;;;;5043190;28;20453;-46
2023/03/20 06:10:51;;;;;;;2.42;2.30;;;7.30;99.90;;;;;;5042476;28;20588;-46
2023/03/20 06:13:19;;;;;;;1.80;1.70;;;7.30;99.90;;;;;;5043328;28;20056;-46
2023/03/20 06:15:47;;;;;;;3.28;2.85;;;7.40;99.90;;;;;;5042696;28;20053;-46
2023/03/20 06:18:17;;;;;;;5.38;2.63;;;7.30;99.90;;;;;;5035780;28;20718;-46
2023/03/20 06:20:45;;;;;;;1.85;1.75;;;7.30;99.90;;;;;;5039285;28;20064;-46
2023/03/20 06:23:13;;;;;;;3.80;2.47;;;7.40;99.90;;;;;;5037570;28;20057;-47
2023/03/20 06:25:41;;;;;;;2.45;2.13;;;7.40;99.90;;;;;;5043246;28;20052;-47
2023/03/20 06:28:09;;;;;;;5.28;2.42;;;7.40;99.90;;;;;;5023438;28;20492;-46
2023/03/20 06:30:37;;;;;;;4.35;2.10;;;7.40;99.90;;;;;;5041300;28;20592;-46
2023/03/20 06:33:06;;;;;;;2.40;2.20;;;7.40;99.90;;;;;;5041978;28;20060;-46
2023/03/20 06:35:51;;;;;;;6.97;3.10;;;7.40;99.90;;;;;;5009948;28;20518;-46
2023/03/20 06:38:19;;;;;;;5.97;3.47;;;7.40;99.90;;;;;;5024078;28;20064;-47
2023/03/20 06:40:47;;;;;;;3.28;2.47;;;7.40;99.90;;;;;;5023450;28;20057;-46
2023/03/20 06:43:18;;;;;;;2.75;2.55;;;7.40;99.90;;;;;;5021782;28;20528;-46
2023/03/20 06:45:51;;;;;;;2.60;2.15;;;7.40;99.90;;;;;;5022662;28;20487;-46
2023/03/20 06:48:25;;;;;;;3.50;3.08;;;7.40;99.90;;;;;;5022552;28;20072;-46
2023/03/20 06:50:53;;;;;;;3.33;2.70;;;7.50;99.90;;;;;;5017643;28;20057;-46
2023/03/20 06:53:23;;;;;;;3.78;2.97;;;7.40;99.90;;;;;;5022113;28;20060;-46
2023/03/20 06:56:01;;;;;;;2.83;2.55;;;7.50;99.90;;;;;;4999215;28;20053;-34
2023/03/20 06:58:29;;;;;;;3.22;2.92;;;7.50;99.90;;;;;;5019941;28;20057;-34
2023/03/20 07:00:56;;;;;;;2.75;2.53;;;7.50;99.90;;;;;;5024546;28;20060;-34
2023/03/20 07:03:24;;;;;;;2.70;2.50;;;7.50;99.90;;;;;;5021770;28;20502;-35
2023/03/20 07:05:53;;;;;;;6.32;3.80;;;7.50;99.90;;;;;;5022836;28;20041;-34
2023/03/20 07:08:22;;;;;;;5.03;3.60;;;7.50;99.90;;;;;;5021944;28;20085;-35
2023/03/20 07:10:50;;;;;;;5.88;3.30;;;7.50;99.90;;;;;;5022424;28;20080;-34
2023/03/20 07:13:18;;;;;;;3.97;3.35;;;7.50;99.90;;;;;;5020069;28;20418;-35
2023/03/20 07:15:45;;;;;;;3.63;3.08;;;7.60;99.90;;;;;;5022211;28;20060;-34
2023/03/20 07:18:33;;;;;;;3.30;2.80;;;7.60;99.90;;;;;;5019626;28;20428;-35
2023/03/20 07:21:03;;;;;;;4.22;3.88;;;7.60;99.90;;;;;;5022663;28;20565;-35
2023/03/20 07:23:33;;;;;;;5.03;3.92;;;7.70;99.90;;;;;;5016946;28;20518;-34
2023/03/20 07:26:02;;;;;;;3.03;2.72;;;7.60;99.90;;;;;;5022486;28;20053;-34
2023/03/20 07:28:30;;;;;;;4.82;4.18;;;7.70;99.90;;;;;;5022088;28;20046;-35
2023/03/20 07:31:36;;;;;;;3.63;3.33;;;7.70;99.90;;;;;;5036763;28;20053;-35
2023/03/20 07:34:14;;;;;;;11.98;5.93;;;7.80;99.90;;;;;;5038746;28;20059;-35
2023/03/20 07:36:43;;;;;;;4.25;3.88;;;7.70;99.90;;;;;;5042432;28;20422;-34
2023/03/20 07:39:15;;;;;;;4.47;3.90;;;7.80;99.90;;;;;;5041010;28;20390;-34
2023/03/20 07:41:50;;;;;;;3.97;3.58;;;7.90;99.90;;;;;;5039662;28;20053;-35
2023/03/20 07:44:32;;;;;;;5.20;4.80;;;7.90;99.90;;;;;;5039576;28;20048;-35
2023/03/20 07:47:04;;;;;;;6.22;5.38;;;8.00;99.90;;;;;;5041217;28;20049;-34
2023/03/20 07:49:32;;;;;;;5.88;4.60;;;8.00;99.90;;;;;;5043269;28;20063;-35
2023/03/20 07:52:01;;;;;;;6.00;4.10;;;8.00;99.90;;;;;;5041824;28;20417;-34
2023/03/20 07:54:30;;;;;;;7.43;3.88;;;8.10;99.90;;;;;;5041555;28;20461;-35
2023/03/20 07:56:58;;;;;;;5.93;4.95;;;8.00;99.90;;;;;;5045054;28;20049;-34
2023/03/20 07:59:25;;;;;;;5.13;4.63;;;8.10;99.90;;;;;;5044566;28;20056;-35
2023/03/20 08:01:53;;;;;;;5.68;5.00;;;8.10;99.90;;;;;;5045205;28;20053;-36
2023/03/20 08:04:22;;;;;;;7.45;6.40;;;8.00;99.90;;;;;;5045975;28;20063;-36
2023/03/20 08:06:50;;;;;;;5.60;5.05;;;8.00;99.90;;;;;;5041996;28;20064;-35
2023/03/20 08:09:18;;;;;;;7.00;5.13;;;8.10;99.90;;;;;;5044557;28;20417;-35
2023/03/20 08:11:45;;;;;;;6.72;5.60;;;8.10;99.90;;;;;;5042311;28;20053;-36
2023/03/20 08:14:13;;;;;;;6.18;5.40;;;8.20;99.90;;;;;;5040162;28;20049;-35
2023/03/20 08:16:40;;;;;;;6.80;6.18;;;8.20;99.90;;;;;;5045740;28;20061;-36
2023/03/20 08:19:08;;;;;;;6.45;5.80;;;8.20;99.90;;;;;;5044791;28;20052;-35
2023/03/20 08:21:36;;;;;;;6.50;5.70;;;8.20;99.90;;;;;;5042866;28;20076;-36
2023/03/20 08:24:03;;;;;;;7.45;5.95;;;8.30;99.90;;;;;;5037908;28;20615;-35
2023/03/20 08:26:31;;;;;;;7.55;6.80;;;8.40;99.90;;;;;;5044511;28;20040;-36
2023/03/20 08:28:59;;;;;;;6.60;5.90;;;8.40;99.90;;;;;;5041886;28;20092;-36
2023/03/20 08:31:26;;;;;;;5.25;4.60;;;8.60;99.90;;;;;;5044314;28;20517;-36
2023/03/20 08:33:55;;;;;;;8.30;6.00;;;8.80;99.90;;;;;;5045175;28;20053;-36
2023/03/20 08:36:23;;;;;;;7.35;6.45;;;9.00;99.90;;;;;;5042473;28;20060;-36
2023/03/20 08:38:51;;;;;;;5.82;5.32;;;9.10;99.90;;;;;;5042153;28;20051;-36
2023/03/20 08:41:19;;;;;;;8.07;7.28;;;9.10;99.90;;;;;;5043463;28;20057;-35
2023/03/20 08:43:46;;;;;;;6.18;5.68;;;9.00;99.90;;;;;;5041692;28;20057;-36
2023/03/20 08:46:14;;;;;;;7.20;5.80;;;8.90;99.90;;;;;;5042346;28;20059;-35
2023/03/20 08:48:42;;;;;;;6.32;5.45;;;8.80;99.90;;;;;;5043322;28;20616;-36
2023/03/20 08:51:10;;;;;;;6.75;6.18;;;8.70;99.90;;;;;;5046755;28;20056;-36
2023/03/20 08:53:37;;;;;;;6.35;5.18;;;8.60;99.90;;;;;;5042495;28;20069;-36
2023/03/20 08:56:06;;;;;;;6.50;5.82;;;8.70;99.90;;;;;;5038668;28;20064;-36
2023/03/20 08:58:33;;;;;;;6.57;5.70;;;8.70;99.90;;;;;;5043770;28;20068;-36
2023/03/20 09:01:07;;;;;;;6.32;5.72;;;8.70;99.90;;;;;;5047458;28;20049;-36
2023/03/20 09:03:35;;;;;;;7.50;5.97;;;8.80;99.90;;;;;;5043216;28;20061;-36
2023/03/20 09:06:07;;;;;;;7.93;5.45;;;9.10;99.90;;;;;;5045202;28;20049;-36
2023/03/20 09:08:35;;;;;;;6.47;5.85;;;9.20;99.90;;;;;;5045482;28;20056;-35
2023/03/20 09:11:04;;;;;;;9.27;6.30;;;9.30;99.90;;;;;;5042754;28;20063;-36
2023/03/20 09:13:31;;;;;;;5.20;4.80;;;9.30;99.90;;;;;;5044308;28;20049;-36
2023/03/20 09:15:59;;;;;;;5.30;4.90;;;9.30;99.90;;;;;;5042666;28;20057;-36
2023/03/20 09:18:27;;;;;;;6.68;5.90;;;9.20;99.90;;;;;;5045211;28;20053;-36
2023/03/20 09:20:55;;;;;;;4.57;4.18;;;9.20;99.90;;;;;;5044497;28;20060;-36
2023/03/20 09:23:23;;;;;;;7.35;6.32;;;9.30;99.90;;;;;;5042828;28;20488;-36
2023/03/20 09:25:50;;;;;;;5.78;5.20;;;9.40;99.90;;;;;;5045422;28;20049;-36
2023/03/20 09:28:18;;;;;;;10.38;4.97;;;9.60;99.90;;;;;;5038214;28;20445;-35
2023/03/20 09:30:47;;;;;;;4.80;4.40;;;9.90;99.90;;;;;;5045472;28;20049;-36
2023/03/20 09:33:14;;;;;;;4.72;4.20;;;10.10;99.90;;;;;;5048853;28;20417;-36
2023/03/20 09:35:42;;;;;;;5.35;4.18;;;10.30;99.90;;;;;;5048875;28;20068;-36
2023/03/20 09:38:11;;;;;;;9.05;5.25;;;10.40;99.90;;;;;;5045082;28;20241;-35
2023/03/20 09:40:48;;;;;;;5.63;4.70;;;10.60;99.90;;;;;;5044992;28;20505;-35
2023/03/20 09:43:43;;;;;;;5.38;4.80;;;10.80;99.90;;;;;;5048492;28;20041;-36
2023/03/20 09:46:23;;;;;;;4.88;3.92;;;11.10;99.90;;;;;;5046760;28;20056;-35
2023/03/20 09:49:04;;;;;;;3.67;3.38;;;10.90;99.90;;;;;;5045034;28;20060;-36
2023/03/20 09:51:50;;;;;;;4.28;3.03;;;10.80;99.90;;;;;;5045048;28;20533;-36
2023/03/20 09:54:30;;;;;;;4.10;3.50;;;10.80;99.90;;;;;;5043449;28;20064;-36
2023/03/20 09:57:41;;;;;;;6.10;3.13;;;11.30;99.90;;;;;;5045959;28;20049;-35
2023/03/20 10:00:23;;;;;;;3.67;3.28;;;10.90;99.90;;;;;;5048881;28;20049;-36
2023/03/20 10:03:03;;;;;;;3.50;3.20;;;10.40;99.90;;;;;;5044776;28;20056;-36
2023/03/20 10:05:44;;;;;;;3.95;3.65;;;10.30;99.90;;;;;;5044206;28;20059;-35
2023/03/20 10:08:17;;;;;;;4.10;3.75;;;10.10;99.90;;;;;;5046484;28;20065;-36
2023/03/20 10:10:55;;;;;;;2.58;2.38;;;10.00;99.90;;;;;;5047383;28;20417;-36
2023/03/20 10:13:25;;;;;;;2.13;1.92;;;10.10;99.90;;;;;;5044330;28;20425;-36
2023/03/20 10:16:34;;;;;;;2.53;2.33;;;10.30;99.90;;;;;;5048455;28;20064;-35
2023/03/20 10:19:02;;;;;;;2.95;2.75;;;10.40;99.90;;;;;;5021792;28;20296;-36
2023/03/20 10:21:43;;;;;;;2.80;2.45;;;10.40;99.90;;;;;;5048664;28;20052;-36
2023/03/20 10:24:24;;;;;;;2.17;1.98;;;10.20;99.90;;;;;;5043359;28;20429;-36
2023/03/20 10:26:54;;;;;;;2.80;2.58;;;10.20;99.90;;;;;;5047380;28;20049;-36
2023/03/20 10:29:29;;;;;;;1.88;1.75;;;10.30;99.90;;;;;;5045756;28;20053;-36
2023/03/20 10:32:07;;;;;;;2.78;2.58;;;10.60;99.90;;;;;;5044934;28;20052;-36
2023/03/20 10:34:53;;;;;;;2.42;2.22;;;10.80;99.90;;;;;;5044625;28;20048;-36
2023/03/20 10:37:38;;;;;;;1.95;1.80;;;10.60;99.90;;;;;;5042791;28;20052;-36
2023/03/20 10:40:30;;;;;;;4.30;2.33;;;10.30;99.90;;;;;;5045198;28;20053;-36
2023/03/20 10:43:09;;;;;;;2.45;2.15;;;10.10;99.90;;;;;;5044538;28;20045;-37
2023/03/20 10:45:42;;;;;;;4.15;3.45;;;10.10;99.90;;;;;;5048118;28;20457;-37
2023/03/20 10:48:20;;;;;;;2.53;2.33;;;10.20;99.90;;;;;;5047397;28;20060;-37
2023/03/20 10:50:54;;;;;;;2.00;1.90;;;10.40;99.90;;;;;;5044302;28;20425;-37
2023/03/20 10:53:29;;;;;;;4.40;1.67;;;10.60;99.90;;;;;;5042344;28;20793;-36
2023/03/20 10:56:02;;;;;;;3.50;1.90;;;10.80;99.90;;;;;;5046770;28;20053;-36
2023/03/20 10:58:36;;;;;;;1.73;1.63;;;10.80;99.90;;;;;;5045738;28;20045;-37
2023/03/20 11:01:03;;;;;;;4.07;2.53;;;10.80;99.90;;;;;;5049469;28;20141;-36
2023/03/20 11:03:35;;;;;;;2.17;1.98;;;10.70;99.90;;;;;;5043484;28;20505;-37
2023/03/20 11:06:05;;;;;;;2.17;2.08;;;10.80;99.90;;;;;;5044148;28;20425;-36
2023/03/20 11:08:45;;;;;;;2.40;2.20;;;10.70;99.90;;;;;;5034874;28;20052;-36
2023/03/20 11:11:12;;;;;;;1.70;1.60;;;10.90;99.90;;;;;;5044131;28;20051;-36
2023/03/20 11:13:44;;;;;;;1.75;1.65;;;11.10;99.90;;;;;;5043183;28;20049;-36
2023/03/20 11:16:23;;;;;;;3.78;2.63;;;11.10;99.90;;;;;;5046604;28;20053;-36
2023/03/20 11:18:52;;;;;;;2.25;2.03;;;11.30;99.90;;;;;;5049302;28;20067;-36
2023/03/20 11:21:24;;;;;;;1.40;1.30;;;11.50;99.90;;;;;;5045658;28;20453;-36
2023/03/20 11:23:53;;;;;;;1.90;1.80;;;11.60;99.90;;;;;;5045287;28;20049;-36
2023/03/20 11:26:40;;;;;;;1.38;1.35;;;11.60;99.90;;;;;;5044061;28;20049;-36
2023/03/20 11:29:22;;;;;;;2.05;1.70;;;11.50;99.90;;;;;;5041456;28;20049;-36
2023/03/20 11:31:50;;;;;;;1.38;1.27;;;11.80;99.90;;;;;;5023647;28;20059;-36
2023/03/20 11:34:18;;;;;;;1.58;1.48;;;11.70;99.90;;;;;;5042341;28;20048;-37
2023/03/20 11:36:55;;;;;;;2.22;2.13;;;11.00;99.90;;;;;;5047650;28;20056;-37
2023/03/20 11:39:38;;;;;;;1.70;1.60;;;11.00;99.90;;;;;;5044287;28;20446;-37
2023/03/20 11:42:22;;;;;;;1.85;1.75;;;10.80;99.90;;;;;;5047318;28;20049;-37
2023/03/20 11:45:05;;;;;;;2.25;2.03;;;10.90;99.90;;;;;;5044131;28;20092;-36
2023/03/20 11:47:34;;;;;;;1.88;1.77;;;11.30;99.90;;;;;;5043191;28;20064;-37
2023/03/20 11:50:05;;;;;;;2.40;2.20;;;11.20;99.90;;;;;;5045480;28;20428;-36
2023/03/20 11:52:36;;;;;;;2.75;2.30;;;11.10;99.90;;;;;;5044991;28;20084;-38
2023/03/20 11:55:23;;;;;;;2.00;1.90;;;11.10;99.90;;;;;;5045049;28;20386;-37
2023/03/20 11:57:59;;;;;;;2.22;2.08;;;11.00;99.90;;;;;;5039314;28;20048;-37
2023/03/20 12:00:39;;;;;;;2.08;1.67;;;11.00;99.90;;;;;;5042964;28;20076;-37
2023/03/20 12:03:41;;;;;;;2.13;1.98;;;11.10;99.90;;;;;;5043219;28;20057;-36
2023/03/20 12:06:21;;;;;;;1.95;1.85;;;11.20;99.90;;;;;;5040849;28;20057;-36
2023/03/20 12:08:57;;;;;;;2.63;2.17;;;11.50;99.90;;;;;;5043332;28;20057;-36
2023/03/20 12:11:35;;;;;;;5.47;2.35;;;11.60;99.90;;;;;;5042297;28;20056;-36
2023/03/20 12:14:06;;;;;;;1.70;1.60;;;11.80;99.90;;;;;;5041438;28;20044;-37
2023/03/20 12:16:35;;;;;;;2.03;1.92;;;12.10;99.90;;;;;;5044703;28;20053;-36
2023/03/20 12:19:17;;;;;;;2.13;1.98;;;11.90;99.90;;;;;;5045045;28;20052;-36
2023/03/20 12:21:51;;;;;;;1.73;1.63;;;11.70;99.90;;;;;;5044555;28;20045;-36
2023/03/20 12:24:49;;;;;;;1.85;1.75;;;11.80;99.90;;;;;;5045374;28;20068;-36
2023/03/20 12:27:26;;;;;;;1.75;1.65;;;11.90;99.90;;;;;;5036597;28;20059;-37
2023/03/20 12:30:03;;;;;;;1.40;1.30;;;11.90;99.90;;;;;;5044732;28;20593;-36
2023/03/20 12:32:45;;;;;;;1.55;1.40;;;12.00;99.90;;;;;;5039409;28;20064;-36
2023/03/20 12:35:26;;;;;;;24.08;1.67;;;12.10;99.90;;;;;;5040385;28;20049;-36
2023/03/20 12:37:54;;;;;;;1.05;1.00;;;12.30;99.90;;;;;;5040070;28;20076;-38
2023/03/20 12:40:42;;;;;;;1.50;1.13;;;12.20;99.90;;;;;;5041792;28;20053;-36
2023/03/20 12:43:15;;;;;;;1.30;0.70;;;12.10;99.90;;;;;;5044250;28;20045;-36
2023/03/20 12:46:22;;;;;;;1.70;1.05;;;12.00;99.90;;;;;;5045222;28;20045;-36
2023/03/20 12:49:16;;;;;;;1.15;1.15;;;11.90;99.90;;;;;;5042044;28;20056;-37
2023/03/20 12:52:01;;;;;;;3.53;0.98;;;12.20;99.90;;;;;;5039827;28;20052;-36
2023/03/20 12:54:43;;;;;;;0.90;0.90;;;12.30;99.90;;;;;;5044885;28;20087;-37
2023/03/20 12:57:31;;;;;;;0.73;0.73;;;12.30;99.90;;;;;;5042347;28;20053;-36
2023/03/20 13:00:16;;;;;;;1.33;1.23;;;12.40;99.90;;;;;;5019870;28;20584;-36
2023/03/20 13:02:49;;;;;;;2.28;1.02;;;12.20;99.90;;;;;;5041526;28;20060;-36
2023/03/20 13:05:25;;;;;;;4.70;1.42;;;12.20;99.90;;;;;;5046131;28;20568;-36
2023/03/20 13:08:32;;;;;;;1.40;1.00;;;12.20;99.90;;;;;;5043135;28;20049;-37
2023/03/20 13:11:12;;;;;;;1.80;1.50;;;12.20;99.90;;;;;;5009010;28;20061;-36
2023/03/20 13:14:09;;;;;;;1.23;1.13;;;12.10;99.90;;;;;;5044604;28;20045;-36
2023/03/20 13:17:00;;;;;;;0.88;0.88;;;12.00;99.90;;;;;;5046696;28;20053;-37
2023/03/20 13:19:53;;;;;;;1.10;1.00;;;12.00;99.90;;;;;;5049853;28;20557;-37
2023/03/20 13:22:30;;;;;;;3.22;1.35;;;12.00;99.90;;;;;;5042782;28;20055;-37
2023/03/20 13:25:31;;;;;;;1.42;1.00;;;12.10;99.90;;;;;;5046935;28;20053;-36
2023/03/20 13:28:09;;;;;;;4.78;1.42;;;12.10;99.90;;;;;;5040257;28;20057;-35
2023/03/20 13:30:48;;;;;;;1.92;1.48;;;11.80;99.90;;;;;;5048367;28;20470;-35
2023/03/20 13:33:48;;;;;;;2.25;1.67;;;11.70;99.90;;;;;;5045283;28;20615;-36
2023/03/20 13:36:47;;;;;;;1.27;1.17;;;11.80;99.90;;;;;;5049093;28;20057;-36
2023/03/20 13:39:40;;;;;;;2.15;1.27;;;11.90;99.90;;;;;;5045308;28;20415;-36
2023/03/20 13:42:16;;;;;;;3.70;1.42;;;11.90;99.90;;;;;;5048742;28;20046;-36
2023/03/20 13:44:45;;;;;;;7.45;1.80;;;11.80;99.90;;;;;;5044781;28;20076;-36